WELCOME TO Fly Ecuador Virtual

Fly Ecuador Virtual es una organización creada con el fin de brindar una plataforma que permita a los pilotos virtuales, principalmente ecuatorianos, tener un lugar donde registrar sus horas de vuelo, sus certificados de conocimiento adquiridos, las rutas que han volado y los destinos que han visitado. Así mismo, se busca ayudar a todos los pilotos a expandir su conocimiento sobre el mundo de la aviación real y virtual por medio de publicaciones, foros y cursos en línea.

A diferencia de las aerolíneas virtuales tradicionales, Fly Ecuador Virtual no simula las operaciones de una aerolínea del mundo real en específico. Un miembro de Fly Ecuador Virtual tiene toda la libertad de volar cualquier aeronave que opere en el espacio aéreo ecuatoriano real, en cualquier ruta, sea esta nacional o internacional, IFR o VFR, aeronaves monomotor, multimotor o helicópteros. Todo esto con el objetivo de expandir las operaciones virtuales dentro del espacio aéreo ecuatoriano, creando una comunidad en la que se compartan conocimientos y experiencias que beneficien a todos sus integrantes.

El crecimiento de Fly Ecuador Virtual depende de la participación conjunta de todos sus miembros, por este motivo se incentiva la participación en línea a través de los diferentes medios descritos más adelante en este sitio web.

 STATISTICS

Pilots 77
Aircraft in fleet 0
Routes 0
Total hours: 10512.00
Flights total 1677
Flights Regular 0
Flights Charter 1724
% Flights Regular 0.00 %

 LATEST FLIGHTS

CallsignPilotDepartureArrivalDateFlight Time
ECU024Arturo Carvajal  SEQM  SERO 2018-10-14 0.88
ECU070Luis Jaramillo  SPJC  SEGU 2018-09-30 1.48
ECU070Luis Jaramillo  SEGU  SPJC 2018-09-29 1.82
ECU070Luis Jaramillo  SKCL  SEGU 2018-09-16 1.24
ECU024Arturo Carvajal  SEGU  SEQM 2018-09-16 0.54

 NEWEST PILOTS

 Consultar METAR

METAR
SEGU - José Joaquín de Olmedo International Airport, Guayaquil, ECU
Distance from station: N 0mi, 0km
Updated: Mon, 22-Oct-2018 4:00am PDT
Overcast
Overcast
 Wind from WSW
Wind: WSW 5 mph , 7 km/h
Temperature: 72°F , 22°C
Dew Point: 64°F , 18°C
Humidity: 78%
Barometer: 29.88 inHg , 1012 hPa
Clouds: Overcast
Visibility: 6 miles , 10 km
Cloud details: Few Clouds 1300 ft
Mostly Cloudy 4000 ft
Overcast 10000 ft
2018/10/22 11:00 SEGU 221100Z 25004KT 210V300 9999 FEW013 BKN040 OVC100 22/18 Q1012 NOSIG RMK A2989
 
SEQM - Aeropuerto Internacional Mariscal Sucre, ECU
Distance from station: NE 120mi, 200km
Updated: Mon, 22-Oct-2018 4:00am PDT
Mostly Cloudy
Mostly Cloudy
 Wind from SE
Wind: SE 2 mph , 4 km/h
Temperature: 50°F , 10°C
Dew Point: 48°F , 9°C
Humidity: 94%
Barometer: 30.3 inHg , 1026 hPa
Clouds: Mostly Cloudy
Visibility: 6 miles , 10 km
Cloud details: Partly Cloudy 1000 ft
Mostly Cloudy 2600 ft
Mostly Cloudy 7000 ft
2018/10/22 11:00 SEQM 221100Z 14002KT 9999 SCT010 BKN026 BKN070 10/09 Q1026 NOSIG RMK A3030
 
SECU - Mariscal Lamar Airpor, ECU
Distance from station: ENE 80mi, 120km
Updated: Mon, 22-Oct-2018 4:00am PDT
Mostly Cloudy
Mostly Cloudy
 Wind from W
Wind: W 3 mph , 6 km/h
Temperature: 52°F , 11°C
Dew Point: 46°F , 8°C
Humidity: 82%
Barometer: 30.27 inHg , 1025 hPa
Clouds: Mostly Cloudy
Visibility: 6 miles , 10 km
Cloud details: Mostly Cloudy 4000 ft
Mostly Cloudy 10000 ft
2018/10/22 11:00 SECU 221100Z 26003KT 9999 BKN040 BKN100 11/08 Q1025
 
SELT - Cotopaxi International Airport, ECU
Distance from station: NW 21mi, 34km
Updated: Mon, 22-Oct-2018 4:00am PDT
Mostly Cloudy
Mostly Cloudy
 Wind from NNE
Wind: NNE 2 mph , 4 km/h
Temperature: 41°F , 5°C
Dew Point: 37°F , 3°C
Humidity: 87%
Barometer: 30.36 inHg , 1028 hPa
Clouds: Mostly Cloudy
Visibility: 6 miles , 10 km
Cloud details: Few Clouds 3000 ft
Mostly Cloudy 30000 ft
2018/10/22 11:00 SELT 221100Z 02002KT 9999 FEW030 BKN300 05/03 Q1028
 
SEMT - Eloy Alfaro International Airport, ECU
Distance from station: SSE 70mi, 100km
Updated: Mon, 22-Oct-2018 4:00am PDT
Mostly Cloudy
Mostly Cloudy
 Wind from SSW
Wind: SSW 7 mph , 11 km/h
Temperature: 72°F , 22°C
Dew Point: 68°F , 20°C
Humidity: 88%
Barometer: 29.88 inHg , 1012 hPa
Clouds: Mostly Cloudy
Visibility: 6 miles , 10 km
Cloud details: Mostly Cloudy 2000 ft
2018/10/22 11:00 SEMT 221100Z 21006KT 9999 BKN020 22/20 Q1012 RMK A2991

Metar display script from Saratoga-Weather.org

 NOTAMS

NOTAMDate



Fly Ecuador Virtual 2018 | System by VAM